sensor_id;sensor_type;location;lat;lon;timestamp;temperature;humidity
21387;DHT22;10854;45.922;6.716;2023-09-07T00:02:22;18.90;99.90
21387;DHT22;10854;45.922;6.716;2023-09-07T00:04:58;18.80;99.90
21387;DHT22;10854;45.922;6.716;2023-09-07T00:07:27;18.70;99.90
21387;DHT22;10854;45.922;6.716;2023-09-07T00:09:55;18.70;99.90
21387;DHT22;10854;45.922;6.716;2023-09-07T00:12:23;18.60;99.90
21387;DHT22;10854;45.922;6.716;2023-09-07T00:14:55;18.60;99.90
21387;DHT22;10854;45.922;6.716;2023-09-07T00:17:25;18.60;99.90
21387;DHT22;10854;45.922;6.716;2023-09-07T00:19:53;18.50;99.90
21387;DHT22;10854;45.922;6.716;2023-09-07T00:22:24;18.50;99.90
21387;DHT22;10854;45.922;6.716;2023-09-07T00:24:56;18.50;99.90
21387;DHT22;10854;45.922;6.716;2023-09-07T00:27:25;18.50;99.90
21387;DHT22;10854;45.922;6.716;2023-09-07T00:29:53;18.50;99.90
21387;DHT22;10854;45.922;6.716;2023-09-07T00:32:21;18.50;99.90
21387;DHT22;10854;45.922;6.716;2023-09-07T00:34:49;18.50;99.90
21387;DHT22;10854;45.922;6.716;2023-09-07T00:37:18;18.50;99.90
21387;DHT22;10854;45.922;6.716;2023-09-07T00:39:46;18.40;99.90
21387;DHT22;10854;45.922;6.716;2023-09-07T00:42:14;18.40;99.90
21387;DHT22;10854;45.922;6.716;2023-09-07T00:44:43;18.30;99.90
21387;DHT22;10854;45.922;6.716;2023-09-07T00:47:11;18.30;99.90
21387;DHT22;10854;45.922;6.716;2023-09-07T00:49:39;18.30;99.90
21387;DHT22;10854;45.922;6.716;2023-09-07T00:52:08;18.20;99.90
21387;DHT22;10854;45.922;6.716;2023-09-07T00:54:40;18.20;99.90
21387;DHT22;10854;45.922;6.716;2023-09-07T00:57:10;18.10;99.90
21387;DHT22;10854;45.922;6.716;2023-09-07T00:59:38;18.10;99.90
21387;DHT22;10854;45.922;6.716;2023-09-07T01:02:07;18.10;99.90
21387;DHT22;10854;45.922;6.716;2023-09-07T01:04:35;18.00;99.90
21387;DHT22;10854;45.922;6.716;2023-09-07T01:07:20;18.00;99.90
21387;DHT22;10854;45.922;6.716;2023-09-07T01:09:52;18.00;99.90
21387;DHT22;10854;45.922;6.716;2023-09-07T01:12:22;18.00;99.90
21387;DHT22;10854;45.922;6.716;2023-09-07T01:14:50;18.10;99.90
21387;DHT22;10854;45.922;6.716;2023-09-07T01:17:21;18.00;99.90
21387;DHT22;10854;45.922;6.716;2023-09-07T01:19:52;18.00;99.90
21387;DHT22;10854;45.922;6.716;2023-09-07T01:22:21;18.00;99.90
21387;DHT22;10854;45.922;6.716;2023-09-07T01:24:53;18.10;99.90
21387;DHT22;10854;45.922;6.716;2023-09-07T01:27:22;18.10;99.90
21387;DHT22;10854;45.922;6.716;2023-09-07T01:29:51;18.00;99.90
21387;DHT22;10854;45.922;6.716;2023-09-07T01:32:21;18.00;99.90
21387;DHT22;10854;45.922;6.716;2023-09-07T01:34:50;18.00;99.90
21387;DHT22;10854;45.922;6.716;2023-09-07T01:37:18;17.90;99.90
21387;DHT22;10854;45.922;6.716;2023-09-07T01:39:46;17.90;99.90
21387;DHT22;10854;45.922;6.716;2023-09-07T01:42:16;17.90;99.90
21387;DHT22;10854;45.922;6.716;2023-09-07T01:44:44;17.80;99.90
21387;DHT22;10854;45.922;6.716;2023-09-07T01:47:13;17.80;99.90
21387;DHT22;10854;45.922;6.716;2023-09-07T01:49:43;17.80;99.90
21387;DHT22;10854;45.922;6.716;2023-09-07T01:52:11;17.80;99.90
21387;DHT22;10854;45.922;6.716;2023-09-07T01:54:39;17.80;99.90
21387;DHT22;10854;45.922;6.716;2023-09-07T01:57:08;17.80;99.90
21387;DHT22;10854;45.922;6.716;2023-09-07T01:59:36;17.80;99.90
21387;DHT22;10854;45.922;6.716;2023-09-07T02:02:04;17.70;99.90
21387;DHT22;10854;45.922;6.716;2023-09-07T02:04:33;17.70;99.90
21387;DHT22;10854;45.922;6.716;2023-09-07T02:07:01;17.70;99.90
21387;DHT22;10854;45.922;6.716;2023-09-07T02:09:30;17.60;99.90
21387;DHT22;10854;45.922;6.716;2023-09-07T02:11:58;17.60;99.90
21387;DHT22;10854;45.922;6.716;2023-09-07T02:14:26;17.50;99.90
21387;DHT22;10854;45.922;6.716;2023-09-07T02:16:55;17.50;99.90
21387;DHT22;10854;45.922;6.716;2023-09-07T02:19:24;17.50;99.90
21387;DHT22;10854;45.922;6.716;2023-09-07T02:21:53;17.50;99.90
21387;DHT22;10854;45.922;6.716;2023-09-07T02:24:22;17.50;99.90
21387;DHT22;10854;45.922;6.716;2023-09-07T02:26:50;17.50;99.90
21387;DHT22;10854;45.922;6.716;2023-09-07T02:29:19;17.50;99.90
21387;DHT22;10854;45.922;6.716;2023-09-07T02:31:47;17.50;99.90
21387;DHT22;10854;45.922;6.716;2023-09-07T02:34:15;17.40;99.90
21387;DHT22;10854;45.922;6.716;2023-09-07T02:36:44;17.40;99.90
21387;DHT22;10854;45.922;6.716;2023-09-07T02:39:13;17.30;99.90
21387;DHT22;10854;45.922;6.716;2023-09-07T02:41:44;17.30;99.90
21387;DHT22;10854;45.922;6.716;2023-09-07T02:44:14;17.30;99.90
21387;DHT22;10854;45.922;6.716;2023-09-07T02:46:46;17.30;99.90
21387;DHT22;10854;45.922;6.716;2023-09-07T02:49:14;17.30;99.90
21387;DHT22;10854;45.922;6.716;2023-09-07T02:51:43;17.30;99.90
21387;DHT22;10854;45.922;6.716;2023-09-07T02:54:12;17.30;99.90
21387;DHT22;10854;45.922;6.716;2023-09-07T02:56:40;17.30;99.90
21387;DHT22;10854;45.922;6.716;2023-09-07T02:59:09;17.20;99.90
21387;DHT22;10854;45.922;6.716;2023-09-07T03:01:38;17.20;99.90
21387;DHT22;10854;45.922;6.716;2023-09-07T03:04:07;17.10;99.90
21387;DHT22;10854;45.922;6.716;2023-09-07T03:06:35;17.10;99.90
21387;DHT22;10854;45.922;6.716;2023-09-07T03:09:04;17.10;99.90
21387;DHT22;10854;45.922;6.716;2023-09-07T03:11:36;17.10;99.90
21387;DHT22;10854;45.922;6.716;2023-09-07T03:14:05;17.10;99.90
21387;DHT22;10854;45.922;6.716;2023-09-07T03:16:33;17.10;99.90
21387;DHT22;10854;45.922;6.716;2023-09-07T03:19:02;17.00;99.90
21387;DHT22;10854;45.922;6.716;2023-09-07T03:21:30;17.00;99.90
21387;DHT22;10854;45.922;6.716;2023-09-07T03:23:59;16.90;99.90
21387;DHT22;10854;45.922;6.716;2023-09-07T03:26:27;16.90;99.90
21387;DHT22;10854;45.922;6.716;2023-09-07T03:28:55;16.90;99.90
21387;DHT22;10854;45.922;6.716;2023-09-07T03:31:25;16.80;99.90
21387;DHT22;10854;45.922;6.716;2023-09-07T03:33:53;16.70;99.90
21387;DHT22;10854;45.922;6.716;2023-09-07T03:36:22;16.70;99.90
21387;DHT22;10854;45.922;6.716;2023-09-07T03:38:55;16.60;99.90
21387;DHT22;10854;45.922;6.716;2023-09-07T03:41:23;16.60;99.90
21387;DHT22;10854;45.922;6.716;2023-09-07T03:43:58;16.60;99.90
21387;DHT22;10854;45.922;6.716;2023-09-07T03:46:27;16.60;99.90
21387;DHT22;10854;45.922;6.716;2023-09-07T03:48:55;16.60;99.90
21387;DHT22;10854;45.922;6.716;2023-09-07T03:51:24;16.50;99.90
21387;DHT22;10854;45.922;6.716;2023-09-07T03:53:53;16.50;99.90
21387;DHT22;10854;45.922;6.716;2023-09-07T03:56:21;16.50;99.90
21387;DHT22;10854;45.922;6.716;2023-09-07T03:58:49;16.50;99.90
21387;DHT22;10854;45.922;6.716;2023-09-07T04:01:18;16.40;99.90
21387;DHT22;10854;45.922;6.716;2023-09-07T04:03:47;16.40;99.90
21387;DHT22;10854;45.922;6.716;2023-09-07T04:06:16;16.40;99.90
21387;DHT22;10854;45.922;6.716;2023-09-07T04:08:44;16.30;99.90
21387;DHT22;10854;45.922;6.716;2023-09-07T04:11:13;16.30;99.90
21387;DHT22;10854;45.922;6.716;2023-09-07T04:13:41;16.30;99.90
21387;DHT22;10854;45.922;6.716;2023-09-07T04:16:09;16.30;99.90
21387;DHT22;10854;45.922;6.716;2023-09-07T04:18:38;16.20;99.90
21387;DHT22;10854;45.922;6.716;2023-09-07T04:21:07;16.10;99.90
21387;DHT22;10854;45.922;6.716;2023-09-07T04:23:36;16.10;99.90
21387;DHT22;10854;45.922;6.716;2023-09-07T04:26:08;16.20;99.90
21387;DHT22;10854;45.922;6.716;2023-09-07T04:28:38;16.10;99.90
21387;DHT22;10854;45.922;6.716;2023-09-07T04:31:06;16.10;99.90
21387;DHT22;10854;45.922;6.716;2023-09-07T04:33:35;16.00;99.90
21387;DHT22;10854;45.922;6.716;2023-09-07T04:36:11;16.00;99.90
21387;DHT22;10854;45.922;6.716;2023-09-07T04:38:40;16.10;99.90
21387;DHT22;10854;45.922;6.716;2023-09-07T04:41:10;16.00;99.90
21387;DHT22;10854;45.922;6.716;2023-09-07T04:43:40;16.00;99.90
21387;DHT22;10854;45.922;6.716;2023-09-07T04:46:11;15.90;99.90
21387;DHT22;10854;45.922;6.716;2023-09-07T04:48:40;15.90;99.90
21387;DHT22;10854;45.922;6.716;2023-09-07T04:51:09;15.90;99.90
21387;DHT22;10854;45.922;6.716;2023-09-07T04:53:40;15.90;99.90
21387;DHT22;10854;45.922;6.716;2023-09-07T04:56:09;15.90;99.90
21387;DHT22;10854;45.922;6.716;2023-09-07T04:58:37;15.90;99.90
21387;DHT22;10854;45.922;6.716;2023-09-07T05:01:07;15.90;99.90
21387;DHT22;10854;45.922;6.716;2023-09-07T05:03:38;15.90;99.90
21387;DHT22;10854;45.922;6.716;2023-09-07T05:06:11;15.80;99.90
21387;DHT22;10854;45.922;6.716;2023-09-07T05:08:40;15.80;99.90
21387;DHT22;10854;45.922;6.716;2023-09-07T05:11:08;15.80;99.90
21387;DHT22;10854;45.922;6.716;2023-09-07T05:13:36;15.80;99.90
21387;DHT22;10854;45.922;6.716;2023-09-07T05:16:05;15.80;99.90
21387;DHT22;10854;45.922;6.716;2023-09-07T05:18:33;15.80;99.90
21387;DHT22;10854;45.922;6.716;2023-09-07T05:21:11;15.80;99.90
21387;DHT22;10854;45.922;6.716;2023-09-07T05:23:40;15.80;99.90
21387;DHT22;10854;45.922;6.716;2023-09-07T05:26:09;15.80;99.90
21387;DHT22;10854;45.922;6.716;2023-09-07T05:28:40;15.80;99.90
21387;DHT22;10854;45.922;6.716;2023-09-07T05:31:11;15.80;99.90
21387;DHT22;10854;45.922;6.716;2023-09-07T05:33:40;15.80;99.90
21387;DHT22;10854;45.922;6.716;2023-09-07T05:36:08;15.80;99.90
21387;DHT22;10854;45.922;6.716;2023-09-07T05:38:37;15.80;99.90
21387;DHT22;10854;45.922;6.716;2023-09-07T05:41:06;15.80;99.90
21387;DHT22;10854;45.922;6.716;2023-09-07T05:43:35;15.80;99.90
21387;DHT22;10854;45.922;6.716;2023-09-07T05:46:03;15.90;99.90
21387;DHT22;10854;45.922;6.716;2023-09-07T05:48:32;15.90;99.90
21387;DHT22;10854;45.922;6.716;2023-09-07T05:51:00;15.90;99.90
21387;DHT22;10854;45.922;6.716;2023-09-07T05:53:29;15.90;99.90
21387;DHT22;10854;45.922;6.716;2023-09-07T05:55:57;15.90;99.90
21387;DHT22;10854;45.922;6.716;2023-09-07T05:58:25;16.00;99.90
21387;DHT22;10854;45.922;6.716;2023-09-07T06:00:54;16.00;99.90
21387;DHT22;10854;45.922;6.716;2023-09-07T06:03:22;16.00;99.90
21387;DHT22;10854;45.922;6.716;2023-09-07T06:05:50;16.10;99.90
21387;DHT22;10854;45.922;6.716;2023-09-07T06:08:19;16.10;99.90
21387;DHT22;10854;45.922;6.716;2023-09-07T06:10:47;16.20;99.90
21387;DHT22;10854;45.922;6.716;2023-09-07T06:13:15;16.20;99.90
21387;DHT22;10854;45.922;6.716;2023-09-07T06:15:44;16.30;99.90
21387;DHT22;10854;45.922;6.716;2023-09-07T06:18:12;16.40;99.90
21387;DHT22;10854;45.922;6.716;2023-09-07T06:20:40;16.50;99.90
21387;DHT22;10854;45.922;6.716;2023-09-07T06:23:08;16.50;99.90
21387;DHT22;10854;45.922;6.716;2023-09-07T06:25:37;16.50;99.90
21387;DHT22;10854;45.922;6.716;2023-09-07T06:28:06;16.50;99.90
21387;DHT22;10854;45.922;6.716;2023-09-07T06:30:34;16.60;99.90
21387;DHT22;10854;45.922;6.716;2023-09-07T06:33:02;16.60;99.90
21387;DHT22;10854;45.922;6.716;2023-09-07T06:35:31;16.60;99.90
21387;DHT22;10854;45.922;6.716;2023-09-07T06:38:00;16.70;99.90
21387;DHT22;10854;45.922;6.716;2023-09-07T06:40:28;16.70;99.90
21387;DHT22;10854;45.922;6.716;2023-09-07T06:42:57;16.70;99.90
21387;DHT22;10854;45.922;6.716;2023-09-07T06:45:28;16.80;99.90
21387;DHT22;10854;45.922;6.716;2023-09-07T06:47:57;16.80;99.90
21387;DHT22;10854;45.922;6.716;2023-09-07T06:50:25;16.90;99.90
21387;DHT22;10854;45.922;6.716;2023-09-07T06:52:53;17.00;99.90
21387;DHT22;10854;45.922;6.716;2023-09-07T06:55:22;17.10;99.90
21387;DHT22;10854;45.922;6.716;2023-09-07T06:57:50;17.50;99.90
21387;DHT22;10854;45.922;6.716;2023-09-07T07:00:18;18.00;99.90
21387;DHT22;10854;45.922;6.716;2023-09-07T07:02:47;18.70;99.90
21387;DHT22;10854;45.922;6.716;2023-09-07T07:05:15;19.40;99.90
21387;DHT22;10854;45.922;6.716;2023-09-07T07:07:43;20.10;99.90
21387;DHT22;10854;45.922;6.716;2023-09-07T07:10:12;20.80;99.90
21387;DHT22;10854;45.922;6.716;2023-09-07T07:12:40;21.40;99.90
21387;DHT22;10854;45.922;6.716;2023-09-07T07:15:09;22.00;99.90
21387;DHT22;10854;45.922;6.716;2023-09-07T07:17:39;22.50;99.90
21387;DHT22;10854;45.922;6.716;2023-09-07T07:20:08;22.90;99.90
21387;DHT22;10854;45.922;6.716;2023-09-07T07:22:37;23.30;97.10
21387;DHT22;10854;45.922;6.716;2023-09-07T07:25:05;23.60;95.00
21387;DHT22;10854;45.922;6.716;2023-09-07T07:27:34;23.80;93.40
21387;DHT22;10854;45.922;6.716;2023-09-07T07:30:03;24.10;92.10
21387;DHT22;10854;45.922;6.716;2023-09-07T07:32:31;24.40;91.40
21387;DHT22;10854;45.922;6.716;2023-09-07T07:34:59;24.70;90.10
21387;DHT22;10854;45.922;6.716;2023-09-07T07:37:28;25.00;87.00
21387;DHT22;10854;45.922;6.716;2023-09-07T07:39:56;25.20;84.60
21387;DHT22;10854;45.922;6.716;2023-09-07T07:42:25;25.40;83.00
21387;DHT22;10854;45.922;6.716;2023-09-07T07:44:53;25.50;82.80
21387;DHT22;10854;45.922;6.716;2023-09-07T07:47:21;25.80;82.10
21387;DHT22;10854;45.922;6.716;2023-09-07T07:49:50;26.10;80.20
21387;DHT22;10854;45.922;6.716;2023-09-07T07:52:19;26.40;78.90
21387;DHT22;10854;45.922;6.716;2023-09-07T07:54:47;26.70;76.00
21387;DHT22;10854;45.922;6.716;2023-09-07T07:57:16;26.80;75.40
21387;DHT22;10854;45.922;6.716;2023-09-07T07:59:44;27.10;74.90
21387;DHT22;10854;45.922;6.716;2023-09-07T08:02:12;27.10;73.10
21387;DHT22;10854;45.922;6.716;2023-09-07T08:04:42;27.30;71.60
21387;DHT22;10854;45.922;6.716;2023-09-07T08:07:10;27.40;71.00
21387;DHT22;10854;45.922;6.716;2023-09-07T08:09:39;27.60;69.00
21387;DHT22;10854;45.922;6.716;2023-09-07T08:12:09;27.80;68.50
21387;DHT22;10854;45.922;6.716;2023-09-07T08:14:37;28.10;68.00
21387;DHT22;10854;45.922;6.716;2023-09-07T08:17:05;28.30;67.40
21387;DHT22;10854;45.922;6.716;2023-09-07T08:19:38;28.50;66.90
21387;DHT22;10854;45.922;6.716;2023-09-07T08:22:07;28.80;66.30
21387;DHT22;10854;45.922;6.716;2023-09-07T08:24:36;29.20;65.10
21387;DHT22;10854;45.922;6.716;2023-09-07T08:27:05;29.50;64.90
21387;DHT22;10854;45.922;6.716;2023-09-07T08:29:34;29.80;62.80
21387;DHT22;10854;45.922;6.716;2023-09-07T08:32:03;30.20;61.70
21387;DHT22;10854;45.922;6.716;2023-09-07T08:34:35;30.70;60.70
21387;DHT22;10854;45.922;6.716;2023-09-07T08:37:07;31.00;58.70
21387;DHT22;10854;45.922;6.716;2023-09-07T08:39:38;31.00;58.40
21387;DHT22;10854;45.922;6.716;2023-09-07T08:42:10;30.90;58.80
21387;DHT22;10854;45.922;6.716;2023-09-07T08:44:39;30.80;58.30
21387;DHT22;10854;45.922;6.716;2023-09-07T08:47:10;30.50;58.80
21387;DHT22;10854;45.922;6.716;2023-09-07T08:49:40;30.40;59.30
21387;DHT22;10854;45.922;6.716;2023-09-07T08:52:10;30.40;59.20
21387;DHT22;10854;45.922;6.716;2023-09-07T08:54:39;30.60;59.00
21387;DHT22;10854;45.922;6.716;2023-09-07T08:57:07;30.90;58.60
21387;DHT22;10854;45.922;6.716;2023-09-07T08:59:36;31.10;58.50
21387;DHT22;10854;45.922;6.716;2023-09-07T09:02:09;31.20;58.30
21387;DHT22;10854;45.922;6.716;2023-09-07T09:04:37;31.40;57.40
21387;DHT22;10854;45.922;6.716;2023-09-07T09:07:07;31.40;56.90
21387;DHT22;10854;45.922;6.716;2023-09-07T09:09:35;31.30;56.70
21387;DHT22;10854;45.922;6.716;2023-09-07T09:12:10;31.30;56.70
21387;DHT22;10854;45.922;6.716;2023-09-07T09:14:45;31.20;56.80
21387;DHT22;10854;45.922;6.716;2023-09-07T09:17:14;31.40;56.70
21387;DHT22;10854;45.922;6.716;2023-09-07T09:19:42;31.40;56.60
21387;DHT22;10854;45.922;6.716;2023-09-07T09:22:11;31.60;56.30
21387;DHT22;10854;45.922;6.716;2023-09-07T09:24:40;31.80;56.50
21387;DHT22;10854;45.922;6.716;2023-09-07T09:27:08;32.00;55.30
21387;DHT22;10854;45.922;6.716;2023-09-07T09:29:37;32.10;54.50
21387;DHT22;10854;45.922;6.716;2023-09-07T09:32:07;32.20;54.20
21387;DHT22;10854;45.922;6.716;2023-09-07T09:34:36;32.60;54.80
21387;DHT22;10854;45.922;6.716;2023-09-07T09:37:13;33.10;54.50
21387;DHT22;10854;45.922;6.716;2023-09-07T09:39:43;33.50;53.00
21387;DHT22;10854;45.922;6.716;2023-09-07T09:42:12;33.80;52.30
21387;DHT22;10854;45.922;6.716;2023-09-07T09:44:41;33.90;50.70
21387;DHT22;10854;45.922;6.716;2023-09-07T09:47:12;33.60;51.10
21387;DHT22;10854;45.922;6.716;2023-09-07T09:49:41;33.40;51.70
21387;DHT22;10854;45.922;6.716;2023-09-07T09:52:10;33.40;51.50
21387;DHT22;10854;45.922;6.716;2023-09-07T09:54:40;33.30;51.50
21387;DHT22;10854;45.922;6.716;2023-09-07T09:57:08;33.20;51.90
21387;DHT22;10854;45.922;6.716;2023-09-07T09:59:37;33.30;51.90
21387;DHT22;10854;45.922;6.716;2023-09-07T10:02:06;33.70;52.10
21387;DHT22;10854;45.922;6.716;2023-09-07T10:04:35;34.20;51.80
21387;DHT22;10854;45.922;6.716;2023-09-07T10:07:07;34.80;50.40
21387;DHT22;10854;45.922;6.716;2023-09-07T10:09:38;35.00;49.70
21387;DHT22;10854;45.922;6.716;2023-09-07T10:12:12;35.20;49.30
21387;DHT22;10854;45.922;6.716;2023-09-07T10:14:42;35.40;48.80
21387;DHT22;10854;45.922;6.716;2023-09-07T10:17:22;35.50;48.50
21387;DHT22;10854;45.922;6.716;2023-09-07T10:20:02;35.60;48.10
21387;DHT22;10854;45.922;6.716;2023-09-07T10:22:33;35.70;47.70
21387;DHT22;10854;45.922;6.716;2023-09-07T10:25:01;35.70;47.70
21387;DHT22;10854;45.922;6.716;2023-09-07T10:27:37;35.60;47.90
21387;DHT22;10854;45.922;6.716;2023-09-07T10:30:10;35.40;47.90
21387;DHT22;10854;45.922;6.716;2023-09-07T10:32:47;35.30;47.90
21387;DHT22;10854;45.922;6.716;2023-09-07T10:35:16;35.40;47.90
21387;DHT22;10854;45.922;6.716;2023-09-07T10:37:45;35.70;47.80
21387;DHT22;10854;45.922;6.716;2023-09-07T10:40:21;35.90;47.30
21387;DHT22;10854;45.922;6.716;2023-09-07T10:43:00;35.90;46.90
21387;DHT22;10854;45.922;6.716;2023-09-07T10:45:28;35.90;47.00
21387;DHT22;10854;45.922;6.716;2023-09-07T10:47:58;35.80;47.20
21387;DHT22;10854;45.922;6.716;2023-09-07T10:50:27;35.90;47.00
21387;DHT22;10854;45.922;6.716;2023-09-07T10:52:56;36.10;46.90
21387;DHT22;10854;45.922;6.716;2023-09-07T10:55:25;36.20;46.90
21387;DHT22;10854;45.922;6.716;2023-09-07T10:57:56;36.20;46.80
21387;DHT22;10854;45.922;6.716;2023-09-07T11:00:25;36.40;47.00
21387;DHT22;10854;45.922;6.716;2023-09-07T11:02:54;36.70;47.00
21387;DHT22;10854;45.922;6.716;2023-09-07T11:05:22;37.00;46.60
21387;DHT22;10854;45.922;6.716;2023-09-07T11:07:53;37.20;45.50
21387;DHT22;10854;45.922;6.716;2023-09-07T11:10:24;36.90;45.30
21387;DHT22;10854;45.922;6.716;2023-09-07T11:12:53;36.70;46.20
21387;DHT22;10854;45.922;6.716;2023-09-07T11:15:22;36.60;46.00
21387;DHT22;10854;45.922;6.716;2023-09-07T11:17:50;36.20;46.10
21387;DHT22;10854;45.922;6.716;2023-09-07T11:20:22;36.00;46.60
21387;DHT22;10854;45.922;6.716;2023-09-07T11:22:51;35.80;47.00
21387;DHT22;10854;45.922;6.716;2023-09-07T11:25:39;35.90;47.40
21387;DHT22;10854;45.922;6.716;2023-09-07T11:28:08;36.00;47.30
21387;DHT22;10854;45.922;6.716;2023-09-07T11:30:49;36.30;46.90
21387;DHT22;10854;45.922;6.716;2023-09-07T11:33:18;36.30;46.40
21387;DHT22;10854;45.922;6.716;2023-09-07T11:35:46;36.20;46.50
21387;DHT22;10854;45.922;6.716;2023-09-07T11:38:16;36.10;46.50
21387;DHT22;10854;45.922;6.716;2023-09-07T11:40:44;35.90;46.60
21387;DHT22;10854;45.922;6.716;2023-09-07T11:43:15;35.70;46.90
21387;DHT22;10854;45.922;6.716;2023-09-07T11:45:45;35.70;46.70
21387;DHT22;10854;45.922;6.716;2023-09-07T11:48:14;35.60;46.40
21387;DHT22;10854;45.922;6.716;2023-09-07T11:50:43;35.60;47.00
21387;DHT22;10854;45.922;6.716;2023-09-07T11:53:11;35.70;47.20
21387;DHT22;10854;45.922;6.716;2023-09-07T11:55:41;35.70;47.30
21387;DHT22;10854;45.922;6.716;2023-09-07T11:58:11;35.70;47.30
21387;DHT22;10854;45.922;6.716;2023-09-07T12:00:39;35.80;47.30
21387;DHT22;10854;45.922;6.716;2023-09-07T12:03:09;35.70;47.60
21387;DHT22;10854;45.922;6.716;2023-09-07T12:05:39;35.70;47.80
21387;DHT22;10854;45.922;6.716;2023-09-07T12:08:12;35.80;47.30
21387;DHT22;10854;45.922;6.716;2023-09-07T12:10:41;36.00;47.00
21387;DHT22;10854;45.922;6.716;2023-09-07T12:13:10;36.20;46.30
21387;DHT22;10854;45.922;6.716;2023-09-07T12:15:38;36.30;46.10
21387;DHT22;10854;45.922;6.716;2023-09-07T12:18:08;36.20;46.30
21387;DHT22;10854;45.922;6.716;2023-09-07T12:20:36;36.10;46.10
21387;DHT22;10854;45.922;6.716;2023-09-07T12:23:07;36.00;46.10
21387;DHT22;10854;45.922;6.716;2023-09-07T12:25:35;36.10;45.90
21387;DHT22;10854;45.922;6.716;2023-09-07T12:28:04;36.20;45.90
21387;DHT22;10854;45.922;6.716;2023-09-07T12:30:33;36.30;45.80
21387;DHT22;10854;45.922;6.716;2023-09-07T12:33:02;36.30;45.60
21387;DHT22;10854;45.922;6.716;2023-09-07T12:35:30;36.30;45.70
21387;DHT22;10854;45.922;6.716;2023-09-07T12:38:00;36.40;45.30
21387;DHT22;10854;45.922;6.716;2023-09-07T12:40:29;36.50;45.30
21387;DHT22;10854;45.922;6.716;2023-09-07T12:42:57;36.30;45.20
21387;DHT22;10854;45.922;6.716;2023-09-07T12:45:25;36.20;45.00
21387;DHT22;10854;45.922;6.716;2023-09-07T12:47:53;36.20;45.30
21387;DHT22;10854;45.922;6.716;2023-09-07T12:50:22;36.40;45.70
21387;DHT22;10854;45.922;6.716;2023-09-07T12:52:51;36.30;45.40
21387;DHT22;10854;45.922;6.716;2023-09-07T12:55:19;36.30;45.40
21387;DHT22;10854;45.922;6.716;2023-09-07T12:57:48;36.30;45.00
21387;DHT22;10854;45.922;6.716;2023-09-07T13:00:16;36.20;45.00
21387;DHT22;10854;45.922;6.716;2023-09-07T13:02:45;36.20;45.30
21387;DHT22;10854;45.922;6.716;2023-09-07T13:05:14;36.20;45.60
21387;DHT22;10854;45.922;6.716;2023-09-07T13:07:42;36.20;45.60
21387;DHT22;10854;45.922;6.716;2023-09-07T13:10:11;36.30;45.50
21387;DHT22;10854;45.922;6.716;2023-09-07T13:12:40;36.30;45.40
21387;DHT22;10854;45.922;6.716;2023-09-07T13:15:09;36.20;45.30
21387;DHT22;10854;45.922;6.716;2023-09-07T13:17:38;36.30;45.70
21387;DHT22;10854;45.922;6.716;2023-09-07T13:20:06;36.30;45.50
21387;DHT22;10854;45.922;6.716;2023-09-07T13:22:35;36.20;45.80
21387;DHT22;10854;45.922;6.716;2023-09-07T13:25:03;36.00;45.90
21387;DHT22;10854;45.922;6.716;2023-09-07T13:27:34;35.90;45.80
21387;DHT22;10854;45.922;6.716;2023-09-07T13:30:03;36.00;45.70
21387;DHT22;10854;45.922;6.716;2023-09-07T13:32:32;36.00;45.40
21387;DHT22;10854;45.922;6.716;2023-09-07T13:35:01;36.10;45.50
21387;DHT22;10854;45.922;6.716;2023-09-07T13:37:29;36.20;45.80
21387;DHT22;10854;45.922;6.716;2023-09-07T13:39:58;36.30;45.50
21387;DHT22;10854;45.922;6.716;2023-09-07T13:42:26;36.30;45.20
21387;DHT22;10854;45.922;6.716;2023-09-07T13:44:56;36.50;45.30
21387;DHT22;10854;45.922;6.716;2023-09-07T13:47:25;36.50;45.10
21387;DHT22;10854;45.922;6.716;2023-09-07T13:49:53;36.50;44.90
21387;DHT22;10854;45.922;6.716;2023-09-07T13:52:21;36.60;44.50
21387;DHT22;10854;45.922;6.716;2023-09-07T13:54:50;36.70;44.50
21387;DHT22;10854;45.922;6.716;2023-09-07T13:57:18;36.80;44.10
21387;DHT22;10854;45.922;6.716;2023-09-07T13:59:46;36.80;44.60
21387;DHT22;10854;45.922;6.716;2023-09-07T14:02:15;36.70;45.60
21387;DHT22;10854;45.922;6.716;2023-09-07T14:04:43;36.60;45.60
21387;DHT22;10854;45.922;6.716;2023-09-07T14:07:11;36.50;45.70
21387;DHT22;10854;45.922;6.716;2023-09-07T14:09:40;36.20;46.50
21387;DHT22;10854;45.922;6.716;2023-09-07T14:12:09;36.00;46.90
21387;DHT22;10854;45.922;6.716;2023-09-07T14:14:38;35.80;46.50
21387;DHT22;10854;45.922;6.716;2023-09-07T14:17:06;35.70;47.20
21387;DHT22;10854;45.922;6.716;2023-09-07T14:19:34;35.70;48.00
21387;DHT22;10854;45.922;6.716;2023-09-07T14:22:03;35.90;48.20
21387;DHT22;10854;45.922;6.716;2023-09-07T14:24:31;36.30;47.50
21387;DHT22;10854;45.922;6.716;2023-09-07T14:27:00;36.70;46.20
21387;DHT22;10854;45.922;6.716;2023-09-07T14:29:29;36.80;45.50
21387;DHT22;10854;45.922;6.716;2023-09-07T14:31:57;37.00;45.30
21387;DHT22;10854;45.922;6.716;2023-09-07T14:34:26;36.90;44.60
21387;DHT22;10854;45.922;6.716;2023-09-07T14:36:54;36.80;44.80
21387;DHT22;10854;45.922;6.716;2023-09-07T14:39:23;36.80;45.30
21387;DHT22;10854;45.922;6.716;2023-09-07T14:41:52;36.70;45.90
21387;DHT22;10854;45.922;6.716;2023-09-07T14:44:23;36.70;45.70
21387;DHT22;10854;45.922;6.716;2023-09-07T14:46:51;36.50;46.00
21387;DHT22;10854;45.922;6.716;2023-09-07T14:49:20;36.20;45.40
21387;DHT22;10854;45.922;6.716;2023-09-07T14:51:48;35.90;45.70
21387;DHT22;10854;45.922;6.716;2023-09-07T14:54:17;35.60;46.10
21387;DHT22;10854;45.922;6.716;2023-09-07T14:56:45;35.30;46.70
21387;DHT22;10854;45.922;6.716;2023-09-07T14:59:14;35.00;47.80
21387;DHT22;10854;45.922;6.716;2023-09-07T15:01:42;34.80;48.40
21387;DHT22;10854;45.922;6.716;2023-09-07T15:04:10;34.50;48.90
21387;DHT22;10854;45.922;6.716;2023-09-07T15:06:39;34.10;49.10
21387;DHT22;10854;45.922;6.716;2023-09-07T15:09:09;33.90;49.80
21387;DHT22;10854;45.922;6.716;2023-09-07T15:11:39;33.70;50.30
21387;DHT22;10854;45.922;6.716;2023-09-07T15:14:10;33.40;50.80
21387;DHT22;10854;45.922;6.716;2023-09-07T15:16:39;33.20;51.30
21387;DHT22;10854;45.922;6.716;2023-09-07T15:19:10;33.10;51.70
21387;DHT22;10854;45.922;6.716;2023-09-07T15:21:39;33.10;51.80
21387;DHT22;10854;45.922;6.716;2023-09-07T15:24:07;33.00;51.70
21387;DHT22;10854;45.922;6.716;2023-09-07T15:26:44;32.90;51.90
21387;DHT22;10854;45.922;6.716;2023-09-07T15:29:13;32.90;51.90
21387;DHT22;10854;45.922;6.716;2023-09-07T15:31:42;32.80;51.90
21387;DHT22;10854;45.922;6.716;2023-09-07T15:34:10;32.60;52.10
21387;DHT22;10854;45.922;6.716;2023-09-07T15:36:40;32.60;52.30
21387;DHT22;10854;45.922;6.716;2023-09-07T15:39:10;32.50;52.50
21387;DHT22;10854;45.922;6.716;2023-09-07T15:41:38;32.40;52.90
21387;DHT22;10854;45.922;6.716;2023-09-07T15:44:07;32.30;53.30